createdAt,value
2019-02-16T00:00:28.769Z,7.30
2019-02-16T00:02:57.387Z,7.40
2019-02-16T00:05:27.933Z,7.50
2019-02-16T00:07:56.626Z,7.60
2019-02-16T00:10:25.311Z,7.70
2019-02-16T00:12:54.343Z,7.70
2019-02-16T00:15:23.983Z,7.80
2019-02-16T00:17:52.939Z,7.80
2019-02-16T00:20:21.726Z,7.90
2019-02-16T00:22:50.411Z,7.90
2019-02-16T00:25:19.198Z,7.90
2019-02-16T00:27:48.393Z,8.00
2019-02-16T00:30:17.075Z,7.90
2019-02-16T00:32:45.865Z,7.90
2019-02-16T00:35:14.742Z,7.90
2019-02-16T00:37:43.344Z,7.90
2019-02-16T00:40:12.081Z,7.80
2019-02-16T00:42:40.727Z,7.80
2019-02-16T00:45:09.547Z,7.70
2019-02-16T00:47:38.217Z,7.70
2019-02-16T00:50:07.326Z,7.80
2019-02-16T00:52:36.012Z,7.70
2019-02-16T00:55:06.101Z,7.70
2019-02-16T00:57:34.815Z,7.80
2019-02-16T01:00:04.442Z,7.80
2019-02-16T01:02:33.026Z,7.80
2019-02-16T01:05:01.619Z,7.70
2019-02-16T01:07:30.368Z,7.80
2019-02-16T01:09:58.997Z,7.70
2019-02-16T01:12:27.738Z,7.70
2019-02-16T01:14:56.424Z,7.70
2019-02-16T01:17:25.152Z,7.60
2019-02-16T01:19:55.428Z,7.50
2019-02-16T01:22:24.418Z,7.40
2019-02-16T01:24:53.439Z,7.50
2019-02-16T01:27:22.017Z,7.40
2019-02-16T01:29:51.040Z,7.30
2019-02-16T01:32:19.670Z,7.30
2019-02-16T01:34:48.354Z,7.40
2019-02-16T01:37:16.934Z,7.40
2019-02-16T01:39:46.075Z,7.40
2019-02-16T01:42:14.715Z,7.30
2019-02-16T01:44:43.808Z,7.20
2019-02-16T01:47:12.845Z,7.20
2019-02-16T01:49:41.426Z,7.20
2019-02-16T01:52:10.478Z,7.10
2019-02-16T01:54:39.159Z,7.20
2019-02-16T01:57:07.736Z,7.10
2019-02-16T01:59:36.473Z,7.10
2019-02-16T02:02:05.421Z,7.10
2019-02-16T02:04:34.102Z,7.00
2019-02-16T02:07:03.399Z,6.90
2019-02-16T02:09:32.005Z,7.00
2019-02-16T02:12:00.594Z,6.90
2019-02-16T02:14:29.184Z,6.90
2019-02-16T02:16:57.782Z,6.90
2019-02-16T02:19:26.412Z,6.80
2019-02-16T02:21:55.099Z,6.80
2019-02-16T02:24:23.750Z,6.90
2019-02-16T02:26:52.351Z,6.80
2019-02-16T02:29:21.054Z,6.70
2019-02-16T02:31:49.661Z,6.70
2019-02-16T02:34:18.320Z,6.70
2019-02-16T02:36:46.920Z,6.70
2019-02-16T02:39:15.919Z,6.70
2019-02-16T02:41:44.529Z,6.70
2019-02-16T02:44:13.112Z,6.50
2019-02-16T02:46:41.743Z,6.60
2019-02-16T02:49:10.421Z,6.60
2019-02-16T02:51:39.026Z,6.60
2019-02-16T02:54:07.928Z,6.50
2019-02-16T02:56:36.580Z,6.50
2019-02-16T02:59:05.159Z,6.60
2019-02-16T03:01:34.194Z,6.60
2019-02-16T03:04:02.836Z,6.50
2019-02-16T03:06:33.396Z,6.50
2019-02-16T03:09:01.667Z,6.40
2019-02-16T03:11:30.657Z,6.40
2019-02-16T03:13:59.225Z,6.40
2019-02-16T03:16:27.893Z,6.50
2019-02-16T03:18:56.500Z,6.30
2019-02-16T03:21:25.205Z,6.30
2019-02-16T03:23:53.742Z,6.30
2019-02-16T03:26:37.723Z,6.30
2019-02-16T03:29:12.390Z,6.40
2019-02-16T03:31:59.577Z,6.40
2019-02-16T03:34:40.370Z,6.40
2019-02-16T03:37:31.550Z,6.40
2019-02-16T03:40:00.112Z,6.30
2019-02-16T03:42:28.920Z,6.40
2019-02-16T03:44:57.558Z,6.40
2019-02-16T03:47:26.243Z,6.40
2019-02-16T03:49:54.978Z,6.40
2019-02-16T03:52:23.550Z,6.30
2019-02-16T03:54:53.770Z,6.20
2019-02-16T03:57:22.418Z,6.10
2019-02-16T03:59:51.410Z,6.20
2019-02-16T04:02:20.121Z,6.20
2019-02-16T04:04:48.779Z,6.20
2019-02-16T04:07:17.503Z,6.30
2019-02-16T04:09:46.158Z,6.30
2019-02-16T04:12:14.830Z,6.30
2019-02-16T04:14:43.512Z,6.10
2019-02-16T04:17:12.426Z,6.10
2019-02-16T04:19:41.046Z,6.00
2019-02-16T04:22:09.784Z,5.90
2019-02-16T04:24:38.862Z,5.90
2019-02-16T04:27:07.559Z,6.00
2019-02-16T04:29:36.284Z,5.80
2019-02-16T04:32:04.913Z,6.00
2019-02-16T04:34:33.555Z,5.70
2019-02-16T04:37:03.289Z,5.80
2019-02-16T04:39:32.347Z,5.70
2019-02-16T04:42:01.440Z,5.60
2019-02-16T04:44:30.719Z,5.60
2019-02-16T04:46:59.560Z,5.60
2019-02-16T04:49:28.256Z,5.50
2019-02-16T04:51:57.601Z,5.40
2019-02-16T04:54:26.698Z,5.50
2019-02-16T04:56:55.352Z,5.40
2019-02-16T04:59:23.982Z,5.40
2019-02-16T05:01:52.711Z,5.40
2019-02-16T05:04:21.502Z,5.40
2019-02-16T05:06:51.663Z,5.50
2019-02-16T05:09:21.170Z,5.40
2019-02-16T05:11:50.355Z,5.50
2019-02-16T05:14:20.040Z,5.50
2019-02-16T05:16:49.811Z,5.30
2019-02-16T05:19:21.654Z,5.40
2019-02-16T05:21:50.944Z,5.50
2019-02-16T05:24:19.585Z,5.40
2019-02-16T05:26:48.170Z,5.50
2019-02-16T05:29:16.847Z,5.40
2019-02-16T05:31:46.042Z,5.40
2019-02-16T05:34:15.178Z,5.50
2019-02-16T05:36:43.920Z,5.50
2019-02-16T05:39:12.938Z,5.40
2019-02-16T05:41:41.744Z,5.40
2019-02-16T05:44:10.530Z,5.40
2019-02-16T05:46:39.115Z,5.40
2019-02-16T05:49:08.000Z,5.30
2019-02-16T05:51:36.745Z,5.40
2019-02-16T05:54:05.491Z,5.30
2019-02-16T05:56:34.277Z,5.30
2019-02-16T05:59:02.901Z,5.40
2019-02-16T06:01:31.702Z,5.40
2019-02-16T06:04:00.417Z,5.30
2019-02-16T06:06:29.200Z,5.20
2019-02-16T06:08:58.195Z,5.30
2019-02-16T06:11:26.939Z,5.20
2019-02-16T06:13:55.845Z,5.10
2019-02-16T06:16:24.507Z,5.10
2019-02-16T06:18:53.237Z,5.10
2019-02-16T06:21:21.886Z,5.00
2019-02-16T06:23:50.606Z,4.90
2019-02-16T06:26:19.240Z,4.90
2019-02-16T06:28:48.259Z,5.00
2019-02-16T06:31:16.871Z,5.00
2019-02-16T06:33:45.458Z,5.40
2019-02-16T06:36:15.724Z,5.00
2019-02-16T06:38:44.453Z,5.10
2019-02-16T06:41:13.169Z,5.00
2019-02-16T06:43:42.243Z,5.10
2019-02-16T06:46:10.801Z,5.00
2019-02-16T06:48:39.870Z,4.90
2019-02-16T06:51:08.549Z,5.00
2019-02-16T06:53:37.465Z,5.10
2019-02-16T06:56:08.006Z,5.10
2019-02-16T06:58:36.797Z,5.20
2019-02-16T07:01:05.448Z,5.00
2019-02-16T07:03:34.163Z,5.10
2019-02-16T07:06:02.848Z,5.10
2019-02-16T07:08:31.480Z,5.00
2019-02-16T07:11:00.113Z,5.10
2019-02-16T07:13:28.857Z,5.10
2019-02-16T07:16:17.507Z,5.10
2019-02-16T07:18:50.467Z,5.20
2019-02-16T07:21:19.528Z,5.30
2019-02-16T07:23:48.627Z,5.30
2019-02-16T07:26:17.410Z,5.70
2019-02-16T07:28:46.046Z,5.80
2019-02-16T07:31:15.980Z,6.10
2019-02-16T07:33:44.754Z,6.20
2019-02-16T07:36:13.382Z,6.20
2019-02-16T07:38:41.995Z,6.30
2019-02-16T07:41:10.743Z,6.40
2019-02-16T07:43:49.566Z,6.80
2019-02-16T07:46:38.115Z,7.10
2019-02-16T07:49:17.206Z,7.50
2019-02-16T07:51:53.508Z,7.80
2019-02-16T07:54:32.942Z,7.40
2019-02-16T07:57:03.235Z,6.90
2019-02-16T07:59:33.486Z,6.60
2019-02-16T08:02:12.925Z,6.40
2019-02-16T08:05:01.452Z,6.40
2019-02-16T08:07:47.160Z,6.40
2019-02-16T08:10:23.099Z,6.40
2019-02-16T08:13:02.192Z,6.40
2019-02-16T08:15:32.561Z,6.40
2019-02-16T08:18:08.775Z,6.40
2019-02-16T08:20:39.033Z,6.40
2019-02-16T08:23:15.129Z,6.60
2019-02-16T08:25:45.833Z,7.00
2019-02-16T08:28:21.891Z,7.60
2019-02-16T08:30:55.239Z,8.10
2019-02-16T08:33:24.993Z,8.50
2019-02-16T08:35:57.372Z,8.90
2019-02-16T08:38:30.660Z,9.50
2019-02-16T08:41:03.898Z,10.00
2019-02-16T08:43:34.373Z,10.40
2019-02-16T08:46:20.776Z,10.80
2019-02-16T08:49:02.774Z,11.20
2019-02-16T08:51:33.282Z,11.40
2019-02-16T08:54:03.110Z,11.30
2019-02-16T08:56:32.717Z,12.00
2019-02-16T08:59:02.529Z,12.10
2019-02-16T09:01:32.804Z,12.30
2019-02-16T09:04:05.989Z,12.60
2019-02-16T09:06:38.820Z,12.80
2019-02-16T09:09:09.329Z,12.90
2019-02-16T09:11:39.582Z,13.40
2019-02-16T09:14:09.851Z,12.90
2019-02-16T09:16:42.772Z,13.00
2019-02-16T09:19:21.114Z,13.20
2019-02-16T09:21:51.124Z,13.50
2019-02-16T09:24:21.412Z,14.70
2019-02-16T09:26:51.742Z,14.90
2019-02-16T09:29:31.279Z,13.90
2019-02-16T09:32:10.363Z,14.30
2019-02-16T09:34:46.219Z,14.90
2019-02-16T09:37:25.708Z,15.30
2019-02-16T09:39:56.083Z,15.10
2019-02-16T09:42:32.502Z,16.00
2019-02-16T09:45:08.445Z,16.30
2019-02-16T09:47:44.575Z,15.80
2019-02-16T09:50:20.733Z,16.50
2019-02-16T09:52:53.704Z,16.80
2019-02-16T09:55:26.592Z,16.10
2019-02-16T09:57:57.020Z,16.20
2019-02-16T10:00:42.431Z,15.90
2019-02-16T10:03:16.314Z,15.80
2019-02-16T10:06:02.700Z,16.00
2019-02-16T10:08:36.033Z,15.70
2019-02-16T10:11:24.438Z,16.00
2019-02-16T10:14:07.040Z,14.90
2019-02-16T10:16:40.280Z,14.80
2019-02-16T10:19:10.607Z,14.60
2019-02-16T10:21:43.691Z,14.40
2019-02-16T10:24:18.151Z,14.60
2019-02-16T10:26:58.060Z,14.00
2019-02-16T10:29:31.719Z,14.00
2019-02-16T10:32:01.982Z,13.80
2019-02-16T10:34:35.335Z,13.40
2019-02-16T10:37:17.635Z,13.30
2019-02-16T10:39:48.215Z,13.20
2019-02-16T10:42:24.421Z,13.50
2019-02-16T10:44:54.751Z,13.50
2019-02-16T10:47:33.783Z,13.10
2019-02-16T10:50:07.286Z,13.10
2019-02-16T10:52:52.556Z,13.30
2019-02-16T10:55:39.397Z,13.00
2019-02-16T10:58:09.721Z,12.90
2019-02-16T11:00:56.837Z,13.00
2019-02-16T11:03:39.036Z,13.00
2019-02-16T11:06:10.415Z,12.90
2019-02-16T11:08:56.785Z,13.00
2019-02-16T11:11:45.806Z,13.10
2019-02-16T11:14:31.223Z,13.10
2019-02-16T11:17:16.293Z,13.10
2019-02-16T11:20:02.942Z,13.00
2019-02-16T11:22:39.217Z,13.10
2019-02-16T11:25:12.336Z,13.20
2019-02-16T11:27:42.774Z,13.10
2019-02-16T11:30:25.138Z,13.30
2019-02-16T11:33:04.682Z,13.40
2019-02-16T11:35:44.110Z,13.50
2019-02-16T11:38:16.296Z,13.60
2019-02-16T11:40:52.268Z,13.60
2019-02-16T11:43:34.881Z,13.60
2019-02-16T11:46:14.502Z,13.60
2019-02-16T11:48:47.717Z,13.80
2019-02-16T11:51:18.004Z,13.70
2019-02-16T11:53:51.740Z,13.70
2019-02-16T11:56:40.257Z,13.80
2019-02-16T11:59:28.806Z,13.80
2019-02-16T12:02:05.205Z,13.80
2019-02-16T12:04:35.582Z,14.00
2019-02-16T12:07:06.060Z,14.00
2019-02-16T12:09:39.450Z,14.10
2019-02-16T12:12:12.846Z,14.10
2019-02-16T12:14:45.933Z,14.10
2019-02-16T12:17:16.259Z,14.20
2019-02-16T12:19:49.139Z,14.30
2019-02-16T12:22:35.946Z,14.30
2019-02-16T12:25:22.450Z,14.40
2019-02-16T12:28:07.804Z,14.40
2019-02-16T12:30:55.294Z,14.40
2019-02-16T12:33:34.717Z,14.30
2019-02-16T12:36:22.087Z,14.30
2019-02-16T12:39:04.619Z,14.30
2019-02-16T12:41:40.061Z,14.50
2019-02-16T12:44:10.546Z,14.50
2019-02-16T12:46:46.703Z,14.50
2019-02-16T12:49:33.310Z,14.60
2019-02-16T12:52:03.735Z,14.60
2019-02-16T12:54:34.042Z,14.80
2019-02-16T12:57:07.417Z,14.80
2019-02-16T12:59:40.378Z,14.90
2019-02-16T13:02:13.484Z,14.90
2019-02-16T13:04:44.303Z,14.90
2019-02-16T13:07:14.638Z,15.00
2019-02-16T13:09:45.149Z,15.00
2019-02-16T13:12:21.623Z,15.00
2019-02-16T13:14:52.109Z,15.00
2019-02-16T13:17:29.906Z,15.10
2019-02-16T13:20:00.253Z,15.10
2019-02-16T13:22:30.547Z,15.00
2019-02-16T13:25:06.785Z,15.00
2019-02-16T13:27:46.300Z,15.00
2019-02-16T13:30:16.687Z,15.00
2019-02-16T13:33:08.114Z,15.00
2019-02-16T13:35:39.991Z,15.00
2019-02-16T13:38:26.802Z,15.10
2019-02-16T13:41:14.015Z,15.00
2019-02-16T13:43:50.384Z,15.10
2019-02-16T13:49:08.393Z,15.00
2019-02-16T13:51:38.757Z,15.00
2019-02-16T13:54:12.652Z,15.00
2019-02-16T13:56:55.582Z,15.00
2019-02-16T13:59:41.017Z,15.00
2019-02-16T14:02:11.846Z,15.00
2019-02-16T14:04:51.329Z,15.00
2019-02-16T14:07:22.031Z,15.00
2019-02-16T14:09:52.362Z,15.00
2019-02-16T14:12:22.912Z,15.00
2019-02-16T14:14:53.213Z,15.00
2019-02-16T14:17:26.894Z,15.10
2019-02-16T14:19:56.338Z,15.10
2019-02-16T14:22:25.227Z,15.10
2019-02-16T14:24:56.814Z,15.00
2019-02-16T14:27:25.857Z,15.00
2019-02-16T14:29:54.559Z,15.00
2019-02-16T14:32:43.076Z,15.00
2019-02-16T14:35:11.758Z,15.00
2019-02-16T14:37:44.839Z,15.00
2019-02-16T14:40:13.563Z,15.00
2019-02-16T14:42:42.267Z,15.20
2019-02-16T14:45:13.408Z,15.10
2019-02-16T14:47:42.138Z,15.20
2019-02-16T14:50:11.788Z,15.10
2019-02-16T14:52:40.577Z,15.10
2019-02-16T14:55:17.186Z,15.10
2019-02-16T14:57:46.342Z,15.20
2019-02-16T15:00:15.215Z,15.20
2019-02-16T15:02:43.882Z,15.30
2019-02-16T15:05:12.801Z,15.20
2019-02-16T15:07:41.592Z,15.10
2019-02-16T15:10:12.144Z,15.10
2019-02-16T15:12:40.900Z,15.00
2019-02-16T15:15:11.419Z,14.90
2019-02-16T15:17:40.072Z,14.90
2019-02-16T15:20:14.939Z,14.80
2019-02-16T15:22:44.136Z,14.70
2019-02-16T15:25:13.132Z,14.70
2019-02-16T15:27:42.017Z,14.50
2019-02-16T15:30:14.323Z,14.50
2019-02-16T15:32:43.482Z,14.40
2019-02-16T15:35:12.576Z,14.40
2019-02-16T15:37:41.670Z,14.30
2019-02-16T15:40:11.316Z,14.20
2019-02-16T15:42:40.123Z,14.20
2019-02-16T15:45:11.500Z,14.20
2019-02-16T15:47:40.683Z,14.10
2019-02-16T15:50:12.223Z,14.00
2019-02-16T15:52:41.045Z,13.90
2019-02-16T15:55:11.961Z,13.80
2019-02-16T15:57:41.083Z,13.70
2019-02-16T16:00:16.651Z,13.60
2019-02-16T16:02:45.652Z,13.50
2019-02-16T16:05:15.453Z,13.30
2019-02-16T16:07:46.362Z,13.20
2019-02-16T16:10:17.100Z,13.10
2019-02-16T16:13:03.706Z,13.00
2019-02-16T16:15:46.780Z,12.90
2019-02-16T16:18:33.795Z,12.80
2019-02-16T16:21:06.922Z,12.70
2019-02-16T16:23:48.970Z,12.50
2019-02-16T16:26:28.724Z,12.30
2019-02-16T16:29:02.262Z,12.20
2019-02-16T16:31:35.019Z,12.10
2019-02-16T16:34:05.979Z,12.00
2019-02-16T16:36:37.430Z,11.80
2019-02-16T16:39:18.111Z,11.70
2019-02-16T16:41:51.900Z,11.60
2019-02-16T16:44:27.195Z,11.50
2019-02-16T16:46:57.971Z,11.30
2019-02-16T16:49:34.129Z,11.20
2019-02-16T16:52:10.455Z,11.20
2019-02-16T16:54:46.821Z,11.00
2019-02-16T16:57:32.337Z,10.90
2019-02-16T17:00:19.108Z,10.70
2019-02-16T17:03:04.624Z,10.50
2019-02-16T17:05:51.025Z,10.40
2019-02-16T17:08:21.449Z,10.30
2019-02-16T17:10:54.620Z,10.20
2019-02-16T17:13:42.891Z,10.10
2019-02-16T17:16:19.143Z,10.00
2019-02-16T17:18:49.397Z,9.90
2019-02-16T17:21:36.379Z,9.80
2019-02-16T17:24:06.762Z,9.80
2019-02-16T17:26:43.177Z,9.70
2019-02-16T17:29:16.454Z,9.60
2019-02-16T17:32:03.246Z,9.50
2019-02-16T17:34:36.120Z,9.30
2019-02-16T17:37:06.430Z,9.20
2019-02-16T17:39:37.164Z,9.20
2019-02-16T17:42:07.634Z,9.10
2019-02-16T17:44:54.404Z,9.00
2019-02-16T17:47:25.293Z,8.90
2019-02-16T17:50:07.381Z,8.80
2019-02-16T17:52:40.605Z,8.50
2019-02-16T17:55:13.919Z,8.60
2019-02-16T17:57:44.556Z,8.50
2019-02-16T18:00:31.713Z,8.40
2019-02-16T18:03:19.812Z,8.30
2019-02-16T18:05:56.333Z,8.30
2019-02-16T18:08:38.480Z,8.10
2019-02-16T18:11:08.739Z,8.10
2019-02-16T18:13:39.117Z,8.00
2019-02-16T18:16:28.322Z,7.90
2019-02-16T18:18:58.638Z,8.00
2019-02-16T18:21:46.427Z,7.90
2019-02-16T18:24:19.361Z,7.80
2019-02-16T18:26:59.184Z,7.80
2019-02-16T18:29:31.887Z,7.80
2019-02-16T18:32:08.621Z,7.70
2019-02-16T18:34:48.010Z,7.80
2019-02-16T18:37:21.287Z,7.60
2019-02-16T18:39:54.885Z,7.60
2019-02-16T18:42:25.210Z,7.50
2019-02-16T18:44:59.239Z,7.50
2019-02-16T18:47:44.593Z,7.40
2019-02-16T18:50:14.977Z,7.50
2019-02-16T18:52:48.199Z,7.40
2019-02-16T18:55:34.012Z,7.40
2019-02-16T18:58:19.371Z,7.40
2019-02-16T19:01:25.606Z,7.20
2019-02-16T19:04:12.461Z,7.20
2019-02-16T19:06:51.938Z,7.10
2019-02-16T19:09:38.608Z,7.20
2019-02-16T19:12:11.914Z,7.00
2019-02-16T19:14:44.735Z,6.90
2019-02-16T19:17:26.919Z,6.90
2019-02-16T19:19:59.847Z,6.80
2019-02-16T19:22:30.273Z,6.80
2019-02-16T19:25:00.696Z,6.90
2019-02-16T19:27:30.872Z,6.80
2019-02-16T19:30:01.239Z,6.80
2019-02-16T19:32:31.639Z,6.80
2019-02-16T19:35:04.552Z,6.70
2019-02-16T19:37:39.373Z,6.60
2019-02-16T19:40:10.210Z,6.50
2019-02-16T19:42:49.339Z,6.60
2019-02-16T19:45:38.197Z,6.50
2019-02-16T19:48:10.881Z,6.60
2019-02-16T19:50:46.844Z,6.60
2019-02-16T19:53:17.345Z,6.60
2019-02-16T19:56:02.791Z,6.40
2019-02-16T19:58:33.055Z,6.40
2019-02-16T20:01:12.162Z,6.30
2019-02-16T20:03:57.458Z,6.30
2019-02-16T20:06:34.233Z,6.40
2019-02-16T20:09:19.813Z,6.20
2019-02-16T20:12:06.416Z,6.20
2019-02-16T20:14:36.739Z,6.30
2019-02-16T20:17:17.001Z,6.40
2019-02-16T20:20:03.775Z,6.30
2019-02-16T20:22:46.369Z,6.20
2019-02-16T20:25:33.020Z,6.10
2019-02-16T20:28:15.409Z,6.00
2019-02-16T20:30:45.758Z,6.00
2019-02-16T20:33:16.161Z,6.00
2019-02-16T20:35:52.499Z,5.90
2019-02-16T20:38:31.916Z,5.80
2019-02-16T20:41:19.018Z,5.80
2019-02-16T20:43:50.202Z,5.80
2019-02-16T20:46:23.422Z,5.80
2019-02-16T20:49:10.436Z,6.00
2019-02-16T20:51:49.674Z,6.00
2019-02-16T20:54:31.677Z,5.90
2019-02-16T20:57:02.398Z,6.00
2019-02-16T20:59:35.346Z,5.90
2019-02-16T21:02:11.542Z,5.70
2019-02-16T21:05:00.399Z,5.70
2019-02-16T21:07:42.864Z,5.90
2019-02-16T21:10:31.667Z,5.90
2019-02-16T21:13:02.269Z,5.80
2019-02-16T21:15:35.373Z,5.80
2019-02-16T21:18:11.847Z,5.80
2019-02-16T21:20:58.350Z,5.80
2019-02-16T21:23:38.093Z,5.60
2019-02-16T21:26:08.517Z,5.40
2019-02-16T21:28:42.332Z,5.50
2019-02-16T21:31:12.643Z,5.60
2019-02-16T21:33:42.873Z,5.60
2019-02-16T21:36:13.143Z,5.60
2019-02-16T21:38:43.430Z,5.50
2019-02-16T21:41:16.494Z,5.50
2019-02-16T21:43:55.521Z,5.60
2019-02-16T21:46:42.264Z,5.40
2019-02-16T21:49:31.175Z,5.30
2019-02-16T21:52:07.204Z,5.20
2019-02-16T21:54:37.522Z,5.30
2019-02-16T21:57:24.228Z,5.20
2019-02-16T21:59:57.875Z,5.30
2019-02-16T22:02:33.986Z,5.20
2019-02-16T22:05:10.194Z,3.90
2019-02-16T22:07:57.104Z,5.10
2019-02-16T22:10:27.427Z,4.50
2019-02-16T22:13:00.824Z,5.90
2019-02-16T22:15:29.578Z,4.90
2019-02-16T22:17:58.603Z,5.00
2019-02-16T22:20:46.517Z,5.00
2019-02-16T22:23:15.406Z,4.90
2019-02-16T22:25:44.111Z,4.90
2019-02-16T22:28:18.751Z,4.80
2019-02-16T22:30:43.071Z,5.20
2019-02-16T22:33:11.865Z,4.90
2019-02-16T22:35:40.898Z,4.90
2019-02-16T22:38:09.639Z,4.70
2019-02-16T22:40:38.635Z,4.70
2019-02-16T22:43:07.464Z,4.70
2019-02-16T22:45:36.071Z,4.70
2019-02-16T22:48:04.789Z,4.70
2019-02-16T22:50:33.478Z,4.80
2019-02-16T22:53:02.153Z,4.90
2019-02-16T22:55:30.748Z,5.00
2019-02-16T22:57:59.470Z,5.00
2019-02-16T23:00:43.917Z,5.10
2019-02-16T23:03:13.018Z,5.00
2019-02-16T23:05:42.414Z,5.00
2019-02-16T23:08:11.067Z,4.90
2019-02-16T23:10:39.831Z,4.90
2019-02-16T23:13:08.719Z,5.00
2019-02-16T23:15:37.466Z,5.20
2019-02-16T23:18:06.307Z,5.40
2019-02-16T23:20:35.089Z,5.50
2019-02-16T23:23:04.020Z,5.60
2019-02-16T23:25:32.748Z,5.40
2019-02-16T23:28:01.424Z,5.40
2019-02-16T23:30:30.180Z,5.50
2019-02-16T23:32:58.963Z,5.90
2019-02-16T23:35:27.956Z,6.10
2019-02-16T23:37:56.580Z,6.10
2019-02-16T23:40:25.426Z,6.20
2019-02-16T23:42:54.312Z,6.00
2019-02-16T23:45:23.413Z,5.90
2019-02-16T23:47:52.052Z,5.90
2019-02-16T23:50:20.835Z,5.80
2019-02-16T23:52:49.523Z,5.80
2019-02-16T23:55:18.309Z,5.80
2019-02-16T23:57:46.886Z,5.80
